D/T METAR WX W/DIR W/SPE G/SPE TEMP DEWP
25/05/20 17:50 EGOV 251650Z AUTO 20020KT 9999 NCD 14/10 Q1033 SSW (200°) 23.0mph 14°C 10°C
25/05/20 16:50 EGOV 251550Z AUTO 19019KT 9999 NCD 15/10 Q1033 S (190°) 21.9mph 15°C 10°C
25/05/20 15:50 EGOV 251450Z AUTO 20020KT 9999 NCD 14/09 Q1034 SSW (200°) 23.0mph 14°C 9°C
25/05/20 14:50 EGOV 251350Z AUTO 20020KT 9999 NCD 15/10 Q1034 SSW (200°) 23.0mph 15°C 10°C
25/05/20 13:50 EGOV 251250Z AUTO 21019KT 9999 NCD 14/08 Q1034 SSW (210°) 21.9mph 14°C 8°C
25/05/20 12:50 EGOV 251150Z AUTO 20020KT 9999 NCD 14/09 Q1034 SSW (200°) 23.0mph 14°C 9°C
25/05/20 11:50 EGOV 251050Z AUTO 19018KT 9999 NCD 14/09 Q1034 S (190°) 20.7mph 14°C 9°C
25/05/20 10:50 EGOV 250950Z AUTO 19017KT 9999 SCT013/// 14/09 Q1034 S (190°) 19.6mph 14°C 9°C
25/05/20 09:50 EGOV 250850Z AUTO 21017KT 9999 BKN011/// 13/09 Q1034 SSW (210°) 19.6mph 13°C 9°C
25/05/20 08:50 EGOV 250750Z AUTO 20017KT 9999 BKN009/// 13/09 Q1034 SSW (200°) 19.6mph 13°C 9°C
25/05/20 07:50 EGOV 250650Z AUTO 18016KT 9999 BKN009/// 12/09 Q1033 S (180°) 18.4mph 12°C 9°C
25/05/20 06:50 EGOV 250550Z AUTO 18016KT 9999 BKN011/// 12/09 Q1033 S (180°) 18.4mph 12°C 9°C
25/05/20 05:50 EGOV 250450Z AUTO 17014KT 9999 BKN014/// 11/09 Q1033 S (170°) 16.1mph 11°C 9°C
25/05/20 04:50 EGOV 250350Z AUTO 17014KT 9999 OVC010/// 12/09 Q1033 S (170°) 16.1mph 12°C 9°C
25/05/20 03:50 EGOV 250250Z AUTO 18017KT 9999 BKN010/// 11/09 Q1033 S (180°) 19.6mph 11°C 9°C
25/05/20 02:50 EGOV 250150Z AUTO 17015KT 9999 OVC009/// 12/09 Q1033 S (170°) 17.3mph 12°C 9°C
25/05/20 01:50 EGOV 250050Z AUTO 17015KT 9999 OVC010/// 12/09 Q1033 S (170°) 17.3mph 12°C 9°C
25/05/20 00:50 EGOV 242350Z AUTO 17015KT 9999 BKN008/// 12/10 Q1033 S (170°) 17.3mph 12°C 10°C
24/05/20 23:50 EGOV 242250Z AUTO 17015KT 9999 SCT010/// 12/09 Q1033 S (170°) 17.3mph 12°C 9°C
24/05/20 22:50 EGOV 242150Z AUTO 17013KT 9999 NCD 12/09 Q1033 S (170°) 15.0mph 12°C 9°C
24/05/20 21:50 EGOV 242050Z AUTO 17014KT 9999 FEW008/// 11/10 Q1033 S (170°) 16.1mph 11°C 10°C
24/05/20 20:50 EGOV 241950Z AUTO 18015KT 9999 NCD 12/10 Q1032 S (180°) 17.3mph 12°C 10°C
24/05/20 19:50 EGOV 241850Z AUTO 19017KT 9999 NCD 13/09 Q1032 S (190°) 19.6mph 13°C 9°C
24/05/20 18:50 EGOV 241750Z AUTO 18013KT 9999 NCD 13/10 Q1031 S (180°) 15.0mph 13°C 10°C
24/05/20 17:50 EGOV 241650Z AUTO 20014KT 9999 NCD 14/10 Q1031 SSW (200°) 16.1mph 14°C 10°C
24/05/20 16:50 EGOV 241550Z AUTO 19012KT 9999 NCD 15/10 Q1032 S (190°) 13.8mph 15°C 10°C
24/05/20 15:50 EGOV 241450Z AUTO 21012KT 9999 NCD 14/10 Q1032 SSW (210°) 13.8mph 14°C 10°C
24/05/20 14:50 EGOV 241350Z AUTO 21015KT 9999 SCT100/// 15/10 Q1031 SSW (210°) 17.3mph 15°C 10°C
24/05/20 13:50 EGOV 241250Z AUTO 20016KT 9999 FEW080/// BKN100/// 14/10 Q1031 SSW (200°) 18.4mph 14°C 10°C
24/05/20 12:50 EGOV 241150Z AUTO 20015KT 9999 FEW027/// OVC070/// 14/10 Q1031 SSW (200°) 17.3mph 14°C 10°C
24/05/20 11:50 EGOV 241050Z AUTO 21014KT 9999 BKN024/// SCT100/// 13/10 Q1030 SSW (210°) 16.1mph 13°C 10°C
24/05/20 10:50 EGOV 240950Z AUTO 20012KT 9999 OVC021/// 13/09 Q1030 SSW (200°) 13.8mph 13°C 9°C
24/05/20 09:50 EGOV 240850Z AUTO 23012KT 9999 OVC020/// 13/09 Q1029 SW (230°) 13.8mph 13°C 9°C
24/05/20 08:50 EGOV 240750Z AUTO 25014KT 9999 BKN021/// BKN120/// 13/09 Q1029 WSW (250°) 16.1mph 13°C 9°C
24/05/20 07:50 EGOV 240650Z AUTO 24012KT 9999 SCT021/// SCT040/// 13/09 Q1028 WSW (240°) 13.8mph 13°C 9°C
24/05/20 06:50 EGOV 240550Z AUTO 24012KT 9999 BKN022/// BKN026/// 12/09 Q1027 WSW (240°) 13.8mph 12°C 9°C
24/05/20 05:50 EGOV 240450Z AUTO 23014KT 9999 BKN020/// 12/10 Q1026 SW (230°) 16.1mph 12°C 10°C
24/05/20 04:50 EGOV 240350Z AUTO 24014KT 9999 SCT020/// BKN036/// 12/10 Q1025 WSW (240°) 16.1mph 12°C 10°C
24/05/20 03:50 EGOV 240250Z AUTO 24015KT 9999 BKN020/// 12/10 Q1025 WSW (240°) 17.3mph 12°C 10°C
24/05/20 02:50 EGOV 240150Z AUTO 24016KT 9999 FEW029/// SCT033/// BKN140/// 12/10 Q1024 WSW (240°) 18.4mph 12°C 10°C
24/05/20 01:50 EGOV 240050Z AUTO 24017KT 9999 FEW033/// BKN050/// 12/10 Q1024 WSW (240°) 19.6mph 12°C 10°C
24/05/20 00:50 EGOV 232350Z AUTO 23019KT 9999 BKN050/// 12/10 Q1024 SW (230°) 21.9mph 12°C 10°C
23/05/20 23:50 EGOV 232250Z AUTO 23021KT 9999 SCT037/// BKN050/// 12/10 Q1024 SW (230°) 24.2mph 12°C 10°C
23/05/20 22:50 EGOV 232150Z AUTO 23021KT 9999 BKN025/// BKN070/// 12/09 Q1023 SW (230°) 24.2mph 12°C 9°C
23/05/20 21:50 EGOV 232050Z AUTO 23019KT 9999 BKN033/// BKN043/// 13/08 Q1023 SW (230°) 21.9mph 13°C 8°C
23/05/20 20:50 EGOV 231950Z AUTO 25016KT 9999 SCT035/// BKN042/// BKN050/// 13/07 Q1022 WSW (250°) 18.4mph 13°C 7°C
23/05/20 19:50 EGOV 231850Z AUTO 24019KT //// // BKN050/// 13/07 Q1022 WSW (240°) 21.9mph 13°C 7°C
23/05/20 18:50 EGOV 231750Z AUTO 23015KT //// // FEW060/// 14/08 Q1021 SW (230°) 17.3mph 14°C 8°C
23/05/20 17:50 EGOV 231650Z AUTO 26021G31KT //// // SCT050/// 15/06 Q1021 W (260°) 24.2mph 35.7mph 15°C 6°C
23/05/20 16:50 EGOV 231550Z AUTO 23018KT //// // SCT060/// 15/06 Q1020 SW (230°) 20.7mph 15°C 6°C
23/05/20 15:50 EGOV 231450Z AUTO 23020KT 9999 SCT050/// 14/08 Q1019 SW (230°) 23.0mph 14°C 8°C
23/05/20 14:50 EGOV 231350Z AUTO 23020KT 9999 BKN050/// 15/09 Q1019 SW (230°) 23.0mph 15°C 9°C
23/05/20 13:50 EGOV 231250Z AUTO 21019KT 9999 SCT060/// 14/08 Q1018 SSW (210°) 21.9mph 14°C 8°C
23/05/20 12:50 EGOV 231150Z AUTO 21021KT 9999 FEW040/// BKN050/// 13/08 Q1017 SSW (210°) 24.2mph 13°C 8°C
23/05/20 11:50 EGOV 231050Z AUTO 21021KT 9999 BKN042/// SCT050/// 13/08 Q1016 SSW (210°) 24.2mph 13°C 8°C
23/05/20 10:50 EGOV 230950Z AUTO 22025KT 9999 FEW049/// 13/08 Q1016 SW (220°) 28.8mph 13°C 8°C
23/05/20 09:50 EGOV 230850Z AUTO 22025KT 9999 NCD 13/08 Q1015 SW (220°) 28.8mph 13°C 8°C
23/05/20 08:50 EGOV 230750Z AUTO 22026KT 9999 NCD 13/07 Q1015 SW (220°) 29.9mph 13°C 7°C
23/05/20 07:50 EGOV 230650Z AUTO 22027KT 9999 FEW040/// 12/07 Q1014 SW (220°) 31.1mph 12°C 7°C
23/05/20 06:50 EGOV 230550Z AUTO 21025KT 9999 FEW032/// 11/07 Q1013 SSW (210°) 28.8mph 11°C 7°C
23/05/20 05:50 EGOV 230450Z AUTO 22025KT 9999 FEW027/// SCT110/// 11/07 Q1013 SW (220°) 28.8mph 11°C 7°C
23/05/20 04:50 EGOV 230350Z AUTO 22025KT 9999 NCD 11/07 Q1013 SW (220°) 28.8mph 11°C 7°C
23/05/20 03:50 EGOV 230250Z AUTO 22023KT 9000 NCD 11/08 Q1013 SW (220°) 26.5mph 11°C 8°C
23/05/20 02:50 EGOV 230150Z AUTO 21024KT 9999 FEW130/// 11/08 Q1013 SSW (210°) 27.6mph 11°C 8°C
23/05/20 01:50 EGOV 230050Z AUTO 21024KT 8000 HZ BKN130/// 11/09 Q1013 HZ SSW (210°) 27.6mph 11°C 9°C
23/05/20 00:50 EGOV 222350Z AUTO 21026KT 7000 HZ NCD 11/09 Q1012 HZ SSW (210°) 29.9mph 11°C 9°C
22/05/20 23:50 EGOV 222250Z AUTO 21027KT 7000 HZ NCD 12/09 Q1012 HZ SSW (210°) 31.1mph 12°C 9°C
22/05/20 22:50 EGOV 222150Z AUTO 22027G37KT 7000 HZ FEW060/// 12/09 Q1012 HZ SW (220°) 31.1mph 42.6mph 12°C 9°C
22/05/20 21:50 EGOV 222050Z AUTO 21029KT 6000 HZ FEW130/// 12/09 Q1011 HZ SSW (210°) 33.4mph 12°C 9°C
22/05/20 20:50 EGOV 221950Z AUTO 21031KT 6000 HZ NCD 12/09 Q1011 HZ SSW (210°) 35.7mph 12°C 9°C
22/05/20 19:50 EGOV 221850Z AUTO 21029KT 6000 HZ NCD 13/09 Q1010 HZ SSW (210°) 33.4mph 13°C 9°C
22/05/20 18:50 EGOV 221750Z AUTO 21031KT 6000 HZ FEW060/// 13/09 Q1010 HZ SSW (210°) 35.7mph 13°C 9°C
22/05/20 17:50 EGOV 221650Z AUTO 21030KT 6000 HZ FEW060/// 14/09 Q1009 HZ SSW (210°) 34.5mph 14°C 9°C
22/05/20 16:50 EGOV 221550Z AUTO 21032G42KT 6000 HZ NCD 14/09 Q1009 HZ SSW (210°) 36.8mph 48.3mph 14°C 9°C
22/05/20 15:50 EGOV 221450Z AUTO 20033KT 7000 HZ FEW060/// 14/09 Q1008 HZ SSW (200°) 38.0mph 14°C 9°C
22/05/20 14:50 EGOV 221350Z AUTO 20034G45KT 6000 HZ NCD 15/09 Q1008 HZ SSW (200°) 39.1mph 51.8mph 15°C 9°C
22/05/20 13:50 EGOV 221250Z AUTO 20035G45KT 6000 HZ FEW023/// 15/10 Q1008 HZ SSW (200°) 40.3mph 51.8mph 15°C 10°C
22/05/20 12:50 EGOV 221150Z AUTO 20035KT 6000 HZ FEW027/// 15/10 Q1007 HZ SSW (200°) 40.3mph 15°C 10°C
22/05/20 11:50 EGOV 221050Z AUTO 20033KT 6000 HZ FEW028/// 14/10 Q1007 HZ SSW (200°) 38.0mph 14°C 10°C
22/05/20 10:50 EGOV 220950Z AUTO 20032KT 6000 HZ NCD 14/10 Q1007 HZ SSW (200°) 36.8mph 14°C 10°C
22/05/20 09:50 EGOV 220850Z AUTO 20033KT 6000 HZ BKN025/// 13/10 Q1006 HZ SSW (200°) 38.0mph 13°C 10°C
22/05/20 08:50 EGOV 220750Z AUTO 19033KT 5000 HZ BKN027/// BKN034/// 13/10 Q1006 HZ S (190°) 38.0mph 13°C 10°C
22/05/20 08:23 EGOV 220723Z 19031KT 9999 SCT031 13/10 Q1005 BECMG 20032G42KT RMK BLU BECMG BLU S (190°) 35.7mph 13°C 10°C
22/05/20 07:50 EGOV 220650Z 19031KT 9999 FEW031 13/10 Q1005 BECMG 20032G42KT RMK BLU BECMG BLU S (190°) 35.7mph 13°C 10°C
22/05/20 07:24 EGOV 220624Z 19031KT 9999 FEW027 12/10 Q1005 BECMG 20032G42KT RMK BLU BECMG BLU S (190°) 35.7mph 12°C 10°C
22/05/20 06:50 EGOV 220550Z 19028KT 9999 SCT028 12/10 Q1005 NOSIG RMK BLU BLU S (190°) 32.2mph 12°C 10°C
22/05/20 05:50 EGOV 220450Z AUTO 20026KT 6000 HZ SCT027/// 12/10 Q1005 HZ SSW (200°) 29.9mph 12°C 10°C
22/05/20 04:50 EGOV 220350Z AUTO 20027KT 6000 HZ FEW007/// BKN010/// 12/11 Q1005 HZ SSW (200°) 31.1mph 12°C 11°C
22/05/20 03:50 EGOV 220250Z AUTO 19031G41KT 8000 BR BKN008/// 13/12 Q1004 RERA BR S (190°) 35.7mph 47.2mph 13°C 12°C
22/05/20 02:50 EGOV 220150Z AUTO 16033KT 5000 -RA BKN014/// 13/11 Q1004 -RA SSE (160°) 38.0mph 13°C 11°C
22/05/20 01:50 EGOV 220050Z AUTO 19026KT 2600 RA FEW034/// BKN050/// 13/11 Q1006 RA S (190°) 29.9mph 13°C 11°C
22/05/20 00:50 EGOV 212350Z AUTO 17021KT 5000 -RA OVC050/// 16/09 Q1007 -RA S (170°) 24.2mph 16°C 9°C
21/05/20 23:50 EGOV 212250Z AUTO 15017KT 9999 -RA OVC070/// 17/06 Q1008 -RA SSE (150°) 19.6mph 17°C 6°C
21/05/20 22:50 EGOV 212150Z AUTO 14011KT 9999 -RA FEW060/// BKN090/// 17/10 Q1009 -RA SE (140°) 12.7mph 17°C 10°C
21/05/20 21:50 EGOV 212050Z AUTO 10009KT //// // BKN100/// 15/11 Q1011 E (100°) 10.4mph 15°C 11°C
21/05/20 20:50 EGOV 211950Z AUTO 08007KT //// // FEW140/// 14/10 Q1013 E (80°) 8.1mph 14°C 10°C